createdAt,value
2019-05-18T00:01:14.600Z,90.80
2019-05-18T00:03:44.148Z,90.80
2019-05-18T00:06:13.640Z,90.60
2019-05-18T00:08:43.361Z,90.80
2019-05-18T00:11:12.864Z,90.60
2019-05-18T00:13:42.668Z,91.00
2019-05-18T00:16:12.201Z,90.90
2019-05-18T00:18:41.717Z,90.70
2019-05-18T00:21:11.339Z,90.70
2019-05-18T00:23:40.830Z,90.70
2019-05-18T00:26:10.349Z,90.50
2019-05-18T00:28:39.871Z,90.50
2019-05-18T00:31:09.335Z,90.40
2019-05-18T00:33:38.786Z,90.50
2019-05-18T00:36:08.418Z,90.50
2019-05-18T00:38:37.883Z,90.70
2019-05-18T00:41:07.409Z,90.80
2019-05-18T00:43:36.910Z,90.70
2019-05-18T00:46:06.371Z,90.60
2019-05-18T00:48:35.823Z,90.50
2019-05-18T00:51:05.280Z,90.40
2019-05-18T00:53:34.806Z,90.30
2019-05-18T00:56:04.290Z,90.00
2019-05-18T00:58:33.731Z,90.40
2019-05-18T01:01:03.270Z,90.50
2019-05-18T01:03:32.717Z,90.60
2019-05-18T01:06:02.173Z,90.60
2019-05-18T01:08:31.639Z,90.30
2019-05-18T01:11:01.090Z,90.30
2019-05-18T01:13:30.552Z,90.20
2019-05-18T01:16:00.004Z,90.20
2019-05-18T01:18:29.462Z,90.40
2019-05-18T01:20:59.367Z,90.50
2019-05-18T01:23:28.818Z,90.60
2019-05-18T01:25:58.311Z,90.50
2019-05-18T01:28:27.774Z,90.90
2019-05-18T01:30:57.235Z,91.40
2019-05-18T01:33:26.689Z,92.10
2019-05-18T01:35:56.160Z,92.60
2019-05-18T01:38:25.620Z,92.20
2019-05-18T01:40:55.084Z,92.20
2019-05-18T01:43:24.555Z,92.20
2019-05-18T01:45:54.003Z,92.40
2019-05-18T01:48:23.478Z,92.40
2019-05-18T01:50:52.945Z,93.00
2019-05-18T01:53:22.409Z,92.70
2019-05-18T01:55:51.862Z,92.40
2019-05-18T01:58:21.326Z,92.20
2019-05-18T02:00:50.777Z,92.20
2019-05-18T02:03:20.244Z,92.10
2019-05-18T02:05:49.781Z,91.80
2019-05-18T02:08:19.238Z,91.50
2019-05-18T02:10:48.689Z,91.60
2019-05-18T02:13:18.142Z,91.70
2019-05-18T02:15:47.607Z,91.70
2019-05-18T02:18:28.296Z,91.50
2019-05-18T02:20:48.136Z,91.30
2019-05-18T02:23:17.591Z,91.80
2019-05-18T02:25:47.045Z,91.80
2019-05-18T02:28:16.515Z,92.10
2019-05-18T02:30:45.953Z,91.70
2019-05-18T02:33:15.491Z,91.50
2019-05-18T02:35:44.965Z,91.10
2019-05-18T02:38:18.446Z,90.90
2019-05-18T02:40:48.062Z,91.00
2019-05-18T02:43:17.519Z,91.00
2019-05-18T02:45:46.995Z,91.00
2019-05-18T02:48:16.480Z,90.80
2019-05-18T02:50:45.961Z,90.80
2019-05-18T02:53:15.414Z,90.50
2019-05-18T02:55:44.954Z,90.90
2019-05-18T02:58:15.537Z,90.60
2019-05-18T03:00:45.031Z,90.80
2019-05-18T03:03:14.482Z,90.60
2019-05-18T03:05:44.638Z,90.90
2019-05-18T03:08:14.165Z,90.90
2019-05-18T03:10:43.813Z,91.10
2019-05-18T03:13:13.268Z,90.90
2019-05-18T03:15:42.749Z,91.10
2019-05-18T03:18:12.299Z,90.90
2019-05-18T03:20:41.781Z,91.00
2019-05-18T03:23:11.300Z,91.10
2019-05-18T03:25:40.778Z,91.20
2019-05-18T03:28:10.239Z,91.20
2019-05-18T03:30:39.730Z,91.40
2019-05-18T03:33:09.257Z,91.20
2019-05-18T03:35:38.818Z,91.60
2019-05-18T03:38:08.447Z,91.70
2019-05-18T03:40:37.903Z,91.70
2019-05-18T03:43:07.372Z,91.20
2019-05-18T03:45:36.967Z,91.20
2019-05-18T03:48:06.960Z,91.20
2019-05-18T03:50:36.424Z,91.80
2019-05-18T03:53:05.896Z,91.60
2019-05-18T03:55:35.356Z,92.20
2019-05-18T03:58:04.819Z,92.30
2019-05-18T04:00:34.289Z,92.30
2019-05-18T04:03:03.761Z,92.40
2019-05-18T04:05:33.226Z,92.60
2019-05-18T04:08:02.688Z,92.60
2019-05-18T04:10:32.165Z,92.40
2019-05-18T04:13:01.639Z,92.30
2019-05-18T04:15:31.173Z,92.50
2019-05-18T04:18:00.636Z,92.50
2019-05-18T04:20:30.122Z,92.60
2019-05-18T04:22:59.593Z,92.90
2019-05-18T04:25:29.098Z,92.40
2019-05-18T04:27:58.558Z,92.80
2019-05-18T04:30:28.011Z,93.50
2019-05-18T04:32:57.481Z,93.40
2019-05-18T04:35:26.949Z,93.50
2019-05-18T04:37:56.420Z,93.50
2019-05-18T04:40:25.888Z,94.40
2019-05-18T04:42:55.359Z,94.40
2019-05-18T04:45:24.824Z,94.40
2019-05-18T04:47:54.292Z,94.60
2019-05-18T04:50:23.764Z,94.50
2019-05-18T04:52:53.222Z,94.40
2019-05-18T04:55:22.694Z,94.30
2019-05-18T04:57:52.171Z,94.20
2019-05-18T05:00:21.706Z,94.40
2019-05-18T05:02:51.172Z,94.30
2019-05-18T05:05:20.642Z,93.70
2019-05-18T05:07:50.112Z,93.70
2019-05-18T05:10:19.586Z,93.30
2019-05-18T05:12:49.077Z,93.50
2019-05-18T05:15:18.544Z,93.20
2019-05-18T05:17:48.016Z,93.20
2019-05-18T05:20:20.036Z,92.60
2019-05-18T05:22:48.960Z,92.90
2019-05-18T05:25:18.429Z,92.80
2019-05-18T05:27:47.903Z,92.30
2019-05-18T05:30:17.452Z,92.10
2019-05-18T05:32:46.925Z,91.90
2019-05-18T05:35:16.399Z,91.70
2019-05-18T05:37:45.860Z,91.60
2019-05-18T05:40:17.093Z,91.30
2019-05-18T05:42:46.567Z,90.90
2019-05-18T05:45:16.403Z,91.00
2019-05-18T05:47:45.873Z,90.40
2019-05-18T05:50:15.344Z,90.20
2019-05-18T05:52:44.807Z,90.20
2019-05-18T05:55:14.417Z,90.10
2019-05-18T05:57:43.888Z,89.40
2019-05-18T06:00:13.698Z,88.60
2019-05-18T06:02:43.179Z,89.20
2019-05-18T06:05:14.293Z,88.00
2019-05-18T06:07:43.838Z,89.20
2019-05-18T06:10:13.641Z,87.40
2019-05-18T06:12:43.137Z,87.50
2019-05-18T06:15:13.144Z,86.50
2019-05-18T06:17:42.743Z,86.00
2019-05-18T06:20:12.588Z,86.00
2019-05-18T06:22:42.057Z,84.20
2019-05-18T06:25:11.868Z,86.60
2019-05-18T06:27:41.331Z,84.50
2019-05-18T06:30:12.237Z,83.70
2019-05-18T06:32:41.708Z,83.90
2019-05-18T06:35:11.528Z,84.10
2019-05-18T06:37:41.055Z,83.10
2019-05-18T06:40:10.804Z,81.80
2019-05-18T06:42:40.881Z,83.30
2019-05-18T06:45:10.840Z,83.40
2019-05-18T06:47:40.377Z,83.20
2019-05-18T06:50:12.532Z,82.30
2019-05-18T06:52:41.553Z,82.40
2019-05-18T06:55:11.079Z,82.30
2019-05-18T06:57:41.281Z,82.40
2019-05-18T07:00:11.445Z,83.30
2019-05-18T07:02:40.985Z,82.00
2019-05-18T07:05:10.543Z,82.20
2019-05-18T07:07:40.037Z,81.10
2019-05-18T07:10:09.680Z,81.90
2019-05-18T07:12:39.149Z,80.80
2019-05-18T07:15:09.777Z,81.30
2019-05-18T07:17:39.245Z,80.90
2019-05-18T07:20:09.476Z,81.20
2019-05-18T07:22:38.957Z,80.80
2019-05-18T07:25:08.740Z,80.10
2019-05-18T07:27:39.175Z,79.70
2019-05-18T07:30:09.508Z,80.90
2019-05-18T07:32:38.964Z,79.60
2019-05-18T07:35:08.925Z,79.30
2019-05-18T07:37:38.378Z,78.40
2019-05-18T07:40:08.316Z,79.60
2019-05-18T07:42:37.777Z,79.30
2019-05-18T07:45:09.005Z,79.30
2019-05-18T07:47:38.464Z,79.10
2019-05-18T07:50:09.493Z,78.10
2019-05-18T07:52:38.998Z,78.50
2019-05-18T07:55:08.676Z,77.60
2019-05-18T07:57:38.144Z,78.80
2019-05-18T08:00:07.991Z,78.10
2019-05-18T08:02:37.455Z,78.00
2019-05-18T08:05:08.381Z,77.00
2019-05-18T08:07:37.845Z,78.20
2019-05-18T08:10:08.178Z,77.80
2019-05-18T08:12:37.668Z,78.00
2019-05-18T08:15:10.750Z,77.70
2019-05-18T08:17:40.232Z,76.90
2019-05-18T08:20:10.252Z,77.70
2019-05-18T08:22:39.880Z,78.10
2019-05-18T08:25:09.500Z,75.70
2019-05-18T08:27:38.965Z,76.60
2019-05-18T08:30:08.884Z,77.10
2019-05-18T08:32:38.348Z,75.70
2019-05-18T08:35:08.267Z,75.90
2019-05-18T08:37:37.732Z,75.80
2019-05-18T08:40:08.469Z,76.80
2019-05-18T08:42:40.658Z,79.00
2019-05-18T08:45:11.452Z,74.30
2019-05-18T08:47:40.931Z,74.60
2019-05-18T08:50:10.739Z,75.30
2019-05-18T08:52:40.210Z,73.90
2019-05-18T08:55:10.007Z,77.90
2019-05-18T08:57:39.474Z,75.90
2019-05-18T09:00:09.476Z,73.80
2019-05-18T09:02:38.935Z,75.10
2019-05-18T09:05:08.769Z,74.30
2019-05-18T09:07:38.234Z,73.10
2019-05-18T09:10:08.160Z,74.20
2019-05-18T09:12:37.616Z,73.80
2019-05-18T09:15:07.544Z,72.30
2019-05-18T09:17:37.019Z,72.40
2019-05-18T09:20:07.938Z,74.90
2019-05-18T09:22:37.648Z,71.20
2019-05-18T09:25:07.647Z,72.70
2019-05-18T09:27:37.109Z,73.60
2019-05-18T09:30:08.966Z,72.70
2019-05-18T09:32:38.698Z,75.70
2019-05-18T09:35:08.943Z,72.50
2019-05-18T09:37:38.444Z,71.70
2019-05-18T09:40:08.676Z,71.70
2019-05-18T09:42:38.145Z,73.00
2019-05-18T09:45:08.445Z,71.00
2019-05-18T09:47:37.929Z,73.90
2019-05-18T09:50:07.831Z,74.30
2019-05-18T09:52:46.383Z,72.20
2019-05-18T09:55:09.653Z,72.10
2019-05-18T09:57:39.144Z,68.50
2019-05-18T10:00:10.764Z,72.20
2019-05-18T10:02:40.241Z,72.00
2019-05-18T10:05:09.773Z,72.80
2019-05-18T10:07:39.256Z,69.00
2019-05-18T10:10:09.087Z,69.30
2019-05-18T10:12:38.839Z,69.00
2019-05-18T10:15:09.860Z,68.80
2019-05-18T10:17:39.491Z,69.90
2019-05-18T10:20:10.079Z,71.60
2019-05-18T10:22:53.371Z,69.50
2019-05-18T10:25:12.600Z,66.80
2019-05-18T10:27:42.071Z,71.90
2019-05-18T10:30:12.349Z,69.80
2019-05-18T10:32:41.819Z,68.00
2019-05-18T10:35:12.222Z,71.00
2019-05-18T10:37:41.757Z,67.30
2019-05-18T10:40:11.769Z,67.80
2019-05-18T10:42:41.246Z,67.40
2019-05-18T10:45:11.252Z,68.80
2019-05-18T10:47:40.818Z,66.30
2019-05-18T10:50:10.714Z,66.50
2019-05-18T10:52:40.200Z,70.30
2019-05-18T10:55:10.102Z,69.10
2019-05-18T10:57:39.588Z,64.40
2019-05-18T11:00:10.882Z,64.90
2019-05-18T11:02:40.451Z,66.20
2019-05-18T11:05:10.267Z,66.10
2019-05-18T11:07:39.748Z,65.30
2019-05-18T11:10:10.829Z,65.10
2019-05-18T11:12:40.448Z,66.70
2019-05-18T11:15:11.764Z,63.60
2019-05-18T11:17:41.244Z,64.80
2019-05-18T11:20:11.564Z,65.10
2019-05-18T11:22:41.061Z,65.10
2019-05-18T11:25:10.943Z,61.20
2019-05-18T11:27:40.433Z,60.20
2019-05-18T11:30:12.004Z,60.30
2019-05-18T11:32:41.443Z,62.90
2019-05-18T11:35:11.344Z,61.10
2019-05-18T11:37:40.811Z,63.10
2019-05-18T11:40:10.948Z,57.40
2019-05-18T11:42:40.444Z,58.70
2019-05-18T11:45:11.434Z,58.10
2019-05-18T11:47:41.556Z,61.00
2019-05-18T11:50:11.664Z,62.10
2019-05-18T11:52:41.160Z,62.80
2019-05-18T11:55:11.620Z,59.90
2019-05-18T11:57:41.120Z,58.50
2019-05-18T12:00:13.584Z,59.10
2019-05-18T12:02:43.146Z,57.70
2019-05-18T12:05:14.148Z,57.80
2019-05-18T12:07:43.635Z,58.10
2019-05-18T12:10:13.331Z,62.20
2019-05-18T12:12:42.826Z,56.40
2019-05-18T12:15:13.035Z,58.60
2019-05-18T12:17:42.523Z,59.40
2019-05-18T12:20:12.340Z,60.20
2019-05-18T12:22:41.860Z,56.80
2019-05-18T12:25:11.666Z,57.00
2019-05-18T12:27:41.233Z,56.80
2019-05-18T12:30:11.794Z,56.10
2019-05-18T12:32:41.291Z,58.40
2019-05-18T12:35:14.056Z,55.60
2019-05-18T12:37:43.571Z,55.70
2019-05-18T12:40:16.116Z,56.10
2019-05-18T12:42:45.754Z,56.20
2019-05-18T12:45:15.656Z,54.40
2019-05-18T12:47:45.158Z,53.90
2019-05-18T12:50:15.552Z,56.70
2019-05-18T12:52:45.715Z,55.50
2019-05-18T12:55:15.873Z,52.80
2019-05-18T12:57:45.433Z,52.40
2019-05-18T13:00:17.891Z,53.60
2019-05-18T13:02:47.390Z,53.80
2019-05-18T13:05:17.579Z,52.60
2019-05-18T13:07:47.143Z,51.30
2019-05-18T13:10:17.768Z,52.00
2019-05-18T13:12:47.296Z,50.50
2019-05-18T13:15:18.468Z,52.20
2019-05-18T13:17:48.072Z,53.50
2019-05-18T13:20:18.060Z,51.00
2019-05-18T13:22:47.588Z,49.80
2019-05-18T13:25:17.268Z,49.20
2019-05-18T13:27:46.735Z,50.50
2019-05-18T13:30:19.701Z,50.50
2019-05-18T13:32:47.857Z,50.10
2019-05-18T13:35:17.448Z,48.20
2019-05-18T13:37:46.923Z,48.80
2019-05-18T13:40:18.501Z,47.90
2019-05-18T13:42:48.200Z,47.60
2019-05-18T13:45:18.984Z,47.60
2019-05-18T13:47:49.510Z,46.80
2019-05-18T13:50:19.416Z,46.70
2019-05-18T13:52:48.890Z,48.40
2019-05-18T13:55:18.520Z,46.90
2019-05-18T13:57:47.991Z,47.50
2019-05-18T14:00:18.039Z,47.70
2019-05-18T14:02:47.672Z,48.60
2019-05-18T14:05:17.304Z,46.00
2019-05-18T14:07:46.831Z,46.90
2019-05-18T14:10:16.472Z,45.20
2019-05-18T14:12:46.032Z,45.10
2019-05-18T14:15:15.893Z,45.70
2019-05-18T14:17:45.361Z,44.70
2019-05-18T14:20:15.376Z,47.80
2019-05-18T14:22:44.852Z,45.10
2019-05-18T14:25:19.776Z,45.20
2019-05-18T14:27:45.881Z,45.00
2019-05-18T14:30:15.700Z,45.00
2019-05-18T14:32:45.172Z,44.20
2019-05-18T14:35:14.900Z,45.80
2019-05-18T14:37:44.368Z,44.00
2019-05-18T14:40:14.432Z,43.60
2019-05-18T14:42:43.866Z,44.00
2019-05-18T14:45:14.499Z,43.60
2019-05-18T14:47:43.977Z,44.40
2019-05-18T14:50:14.397Z,45.40
2019-05-18T14:52:43.868Z,45.70
2019-05-18T14:55:13.702Z,44.20
2019-05-18T14:57:43.170Z,45.40
2019-05-18T15:00:13.172Z,44.00
2019-05-18T15:02:42.643Z,42.70
2019-05-18T15:05:12.369Z,43.70
2019-05-18T15:07:41.923Z,44.80
2019-05-18T15:10:11.560Z,44.10
2019-05-18T15:12:41.807Z,42.20
2019-05-18T15:15:11.828Z,43.50
2019-05-18T15:17:41.292Z,42.00
2019-05-18T15:20:11.808Z,44.00
2019-05-18T15:22:41.378Z,41.80
2019-05-18T15:25:11.476Z,42.10
2019-05-18T15:27:41.255Z,42.40
2019-05-18T15:30:10.960Z,41.90
2019-05-18T15:32:40.519Z,41.90
2019-05-18T15:35:10.764Z,42.10
2019-05-18T15:37:43.401Z,41.70
2019-05-18T15:40:12.007Z,42.30
2019-05-18T15:42:41.485Z,42.40
2019-05-18T15:45:11.346Z,40.70
2019-05-18T15:47:40.800Z,41.10
2019-05-18T15:50:10.935Z,41.10
2019-05-18T15:52:40.400Z,42.40
2019-05-18T15:55:10.127Z,43.40
2019-05-18T15:57:39.591Z,43.40
2019-05-18T16:00:11.232Z,43.90
2019-05-18T16:02:40.786Z,43.30
2019-05-18T16:05:10.624Z,42.00
2019-05-18T16:07:40.269Z,42.10
2019-05-18T16:10:10.395Z,40.90
2019-05-18T16:12:39.928Z,41.90
2019-05-18T16:15:09.951Z,42.70
2019-05-18T16:17:40.375Z,42.70
2019-05-18T16:20:10.978Z,42.70
2019-05-18T16:22:40.452Z,42.80
2019-05-18T16:25:10.186Z,42.70
2019-05-18T16:27:39.717Z,42.50
2019-05-18T16:30:09.731Z,41.30
2019-05-18T16:32:39.220Z,42.70
2019-05-18T16:35:10.547Z,41.70
2019-05-18T16:37:40.075Z,42.50
2019-05-18T16:40:10.176Z,42.50
2019-05-18T16:42:39.709Z,43.20
2019-05-18T16:45:09.714Z,44.00
2019-05-18T16:47:39.163Z,43.30
2019-05-18T16:50:09.043Z,44.00
2019-05-18T16:52:38.543Z,44.50
2019-05-18T16:55:10.430Z,44.10
2019-05-18T16:57:39.969Z,44.00
2019-05-18T17:00:15.968Z,44.70
2019-05-18T17:02:44.112Z,45.30
2019-05-18T17:05:14.357Z,48.40
2019-05-18T17:07:44.124Z,48.50
2019-05-18T17:10:14.160Z,46.80
2019-05-18T17:12:43.753Z,47.00
2019-05-18T17:15:13.684Z,48.40
2019-05-18T17:17:43.174Z,46.90
2019-05-18T17:20:13.259Z,47.50
2019-05-18T17:22:42.950Z,48.40
2019-05-18T17:25:12.996Z,48.70
2019-05-18T17:27:42.597Z,49.20
2019-05-18T17:30:12.537Z,49.90
2019-05-18T17:32:42.147Z,50.60
2019-05-18T17:35:12.629Z,51.00
2019-05-18T17:37:42.154Z,51.70
2019-05-18T17:40:12.194Z,50.00
2019-05-18T17:42:41.738Z,51.70
2019-05-18T17:45:11.606Z,51.70
2019-05-18T17:47:41.199Z,51.80
2019-05-18T17:50:11.659Z,51.80
2019-05-18T17:52:41.245Z,53.30
2019-05-18T17:55:12.265Z,53.30
